sensor_id;sensor_type;location;lat;lon;timestamp;pressure;altitude;pressure_sealevel;temperature;humidity
23417;BME280;11881;42.432;25.632;2024-03-06T00:00:25;99022.22;;;8.96;100.00
23417;BME280;11881;42.432;25.632;2024-03-06T00:02:51;99018.19;;;9.01;100.00
23417;BME280;11881;42.432;25.632;2024-03-06T00:05:16;99013.91;;;8.79;100.00
23417;BME280;11881;42.432;25.632;2024-03-06T00:07:42;99010.69;;;8.76;100.00
23417;BME280;11881;42.432;25.632;2024-03-06T00:10:08;99009.97;;;8.74;100.00
23417;BME280;11881;42.432;25.632;2024-03-06T00:12:34;99010.81;;;8.74;100.00
23417;BME280;11881;42.432;25.632;2024-03-06T00:14:59;99007.91;;;8.77;100.00
23417;BME280;11881;42.432;25.632;2024-03-06T00:17:25;99005.94;;;8.79;100.00
23417;BME280;11881;42.432;25.632;2024-03-06T00:19:50;99011.97;;;8.82;100.00
23417;BME280;11881;42.432;25.632;2024-03-06T00:22:16;99008.59;;;8.79;100.00
23417;BME280;11881;42.432;25.632;2024-03-06T00:24:42;99006.38;;;8.85;100.00
23417;BME280;11881;42.432;25.632;2024-03-06T00:27:07;99008.81;;;8.67;100.00
23417;BME280;11881;42.432;25.632;2024-03-06T00:29:34;99010.19;;;8.61;100.00
23417;BME280;11881;42.432;25.632;2024-03-06T00:32:03;99008.13;;;8.65;100.00
23417;BME280;11881;42.432;25.632;2024-03-06T00:34:29;99005.19;;;8.68;100.00
23417;BME280;11881;42.432;25.632;2024-03-06T00:36:54;99003.13;;;8.71;100.00
23417;BME280;11881;42.432;25.632;2024-03-06T00:39:20;99001.56;;;8.69;100.00
23417;BME280;11881;42.432;25.632;2024-03-06T00:41:46;98998.06;;;8.68;100.00
23417;BME280;11881;42.432;25.632;2024-03-06T00:44:11;99002.22;;;8.61;100.00
23417;BME280;11881;42.432;25.632;2024-03-06T00:46:37;99002.00;;;8.74;100.00
23417;BME280;11881;42.432;25.632;2024-03-06T00:49:03;99003.13;;;8.71;100.00
23417;BME280;11881;42.432;25.632;2024-03-06T00:51:29;99007.00;;;8.67;100.00
23417;BME280;11881;42.432;25.632;2024-03-06T00:53:54;99009.06;;;8.54;100.00
23417;BME280;11881;42.432;25.632;2024-03-06T00:56:20;99012.84;;;8.61;100.00
23417;BME280;11881;42.432;25.632;2024-03-06T00:58:45;99009.94;;;8.64;100.00
23417;BME280;11881;42.432;25.632;2024-03-06T01:01:11;99018.59;;;8.66;100.00
23417;BME280;11881;42.432;25.632;2024-03-06T01:03:39;99018.03;;;8.63;100.00
23417;BME280;11881;42.432;25.632;2024-03-06T01:06:05;99009.06;;;8.64;100.00
23417;BME280;11881;42.432;25.632;2024-03-06T01:08:30;99010.81;;;8.74;100.00
23417;BME280;11881;42.432;25.632;2024-03-06T01:10:57;99014.03;;;8.78;100.00
23417;BME280;11881;42.432;25.632;2024-03-06T01:13:22;99011.63;;;8.65;100.00
23417;BME280;11881;42.432;25.632;2024-03-06T01:15:48;99015.41;;;8.72;100.00
23417;BME280;11881;42.432;25.632;2024-03-06T01:18:13;99013.31;;;8.66;100.00
23417;BME280;11881;42.432;25.632;2024-03-06T01:20:39;99010.50;;;8.68;100.00
23417;BME280;11881;42.432;25.632;2024-03-06T01:23:05;99016.84;;;8.76;100.00
23417;BME280;11881;42.432;25.632;2024-03-06T01:25:31;99014.28;;;8.75;100.00
23417;BME280;11881;42.432;25.632;2024-03-06T01:27:57;99018.66;;;8.76;100.00
23417;BME280;11881;42.432;25.632;2024-03-06T01:30:22;99022.78;;;8.69;100.00
23417;BME280;11881;42.432;25.632;2024-03-06T01:32:48;99029.69;;;8.71;100.00
23417;BME280;11881;42.432;25.632;2024-03-06T01:35:13;99030.28;;;8.54;100.00
23417;BME280;11881;42.432;25.632;2024-03-06T01:37:39;99036.22;;;8.67;100.00
23417;BME280;11881;42.432;25.632;2024-03-06T01:40:05;99039.84;;;8.66;100.00
23417;BME280;11881;42.432;25.632;2024-03-06T01:42:31;99030.75;;;8.59;100.00
23417;BME280;11881;42.432;25.632;2024-03-06T01:44:56;99040.28;;;8.41;100.00
23417;BME280;11881;42.432;25.632;2024-03-06T01:47:22;99042.72;;;8.53;100.00
23417;BME280;11881;42.432;25.632;2024-03-06T01:49:47;99043.13;;;8.49;100.00
23417;BME280;11881;42.432;25.632;2024-03-06T01:52:14;99044.09;;;8.48;100.00
23417;BME280;11881;42.432;25.632;2024-03-06T01:54:41;99048.56;;;8.47;100.00
23417;BME280;11881;42.432;25.632;2024-03-06T01:57:08;99049.50;;;8.46;100.00
23417;BME280;11881;42.432;25.632;2024-03-06T01:59:34;99053.56;;;8.41;100.00
23417;BME280;11881;42.432;25.632;2024-03-06T02:02:00;99055.97;;;8.33;100.00
23417;BME280;11881;42.432;25.632;2024-03-06T02:04:27;99057.16;;;8.40;100.00
23417;BME280;11881;42.432;25.632;2024-03-06T02:06:53;99064.88;;;8.43;100.00
23417;BME280;11881;42.432;25.632;2024-03-06T02:09:19;99056.53;;;8.47;100.00
23417;BME280;11881;42.432;25.632;2024-03-06T02:11:45;99062.13;;;8.33;100.00
23417;BME280;11881;42.432;25.632;2024-03-06T02:14:11;99064.44;;;8.38;100.00
23417;BME280;11881;42.432;25.632;2024-03-06T02:16:36;99060.69;;;8.29;100.00
23417;BME280;11881;42.432;25.632;2024-03-06T02:19:04;99066.78;;;8.20;100.00
23417;BME280;11881;42.432;25.632;2024-03-06T02:21:30;99056.78;;;8.23;100.00
23417;BME280;11881;42.432;25.632;2024-03-06T02:23:56;99062.66;;;8.27;100.00
23417;BME280;11881;42.432;25.632;2024-03-06T02:26:22;99062.78;;;8.25;100.00
23417;BME280;11881;42.432;25.632;2024-03-06T02:31:15;99066.00;;;8.29;100.00
23417;BME280;11881;42.432;25.632;2024-03-06T02:33:41;99068.41;;;8.32;100.00
23417;BME280;11881;42.432;25.632;2024-03-06T02:36:07;99062.97;;;8.34;100.00
23417;BME280;11881;42.432;25.632;2024-03-06T02:38:32;99073.41;;;8.25;100.00
23417;BME280;11881;42.432;25.632;2024-03-06T02:40:58;99070.09;;;8.12;100.00
23417;BME280;11881;42.432;25.632;2024-03-06T02:43:23;99074.56;;;8.12;100.00
23417;BME280;11881;42.432;25.632;2024-03-06T02:45:49;99079.66;;;8.04;100.00
23417;BME280;11881;42.432;25.632;2024-03-06T02:48:14;99075.91;;;8.06;100.00
23417;BME280;11881;42.432;25.632;2024-03-06T02:50:40;99072.56;;;8.25;100.00
23417;BME280;11881;42.432;25.632;2024-03-06T02:53:05;99073.78;;;8.21;100.00
23417;BME280;11881;42.432;25.632;2024-03-06T02:55:31;99073.03;;;7.98;100.00
23417;BME280;11881;42.432;25.632;2024-03-06T02:57:56;99068.38;;;8.11;100.00
23417;BME280;11881;42.432;25.632;2024-03-06T03:00:22;99070.16;;;8.22;100.00
23417;BME280;11881;42.432;25.632;2024-03-06T03:02:48;99064.97;;;8.20;100.00
23417;BME280;11881;42.432;25.632;2024-03-06T03:05:13;99071.72;;;8.24;100.00
23417;BME280;11881;42.432;25.632;2024-03-06T03:07:39;99074.22;;;8.05;100.00
23417;BME280;11881;42.432;25.632;2024-03-06T03:10:05;99083.69;;;8.19;100.00
23417;BME280;11881;42.432;25.632;2024-03-06T03:12:31;99081.28;;;8.16;100.00
23417;BME280;11881;42.432;25.632;2024-03-06T03:14:56;99080.25;;;8.07;100.00
23417;BME280;11881;42.432;25.632;2024-03-06T03:17:22;99083.41;;;8.01;100.00
23417;BME280;11881;42.432;25.632;2024-03-06T03:19:47;99083.75;;;8.08;100.00
23417;BME280;11881;42.432;25.632;2024-03-06T03:22:13;99081.47;;;8.03;100.00
23417;BME280;11881;42.432;25.632;2024-03-06T03:24:41;99082.44;;;8.02;100.00
23417;BME280;11881;42.432;25.632;2024-03-06T03:27:06;99090.41;;;8.02;100.00
23417;BME280;11881;42.432;25.632;2024-03-06T03:29:33;99089.59;;;7.90;100.00
23417;BME280;11881;42.432;25.632;2024-03-06T03:31:58;99083.69;;;7.87;100.00
23417;BME280;11881;42.432;25.632;2024-03-06T03:34:23;99095.84;;;8.00;100.00
23417;BME280;11881;42.432;25.632;2024-03-06T03:36:49;99091.88;;;7.95;100.00
23417;BME280;11881;42.432;25.632;2024-03-06T03:39:14;99092.06;;;7.71;100.00
23417;BME280;11881;42.432;25.632;2024-03-06T03:41:46;99092.78;;;7.84;100.00
23417;BME280;11881;42.432;25.632;2024-03-06T03:44:13;99091.59;;;7.77;100.00
23417;BME280;11881;42.432;25.632;2024-03-06T03:46:39;99096.72;;;7.90;100.00
23417;BME280;11881;42.432;25.632;2024-03-06T03:49:04;99094.81;;;7.81;100.00
23417;BME280;11881;42.432;25.632;2024-03-06T03:51:30;99093.84;;;7.82;100.00
23417;BME280;11881;42.432;25.632;2024-03-06T03:53:55;99108.38;;;7.98;100.00
23417;BME280;11881;42.432;25.632;2024-03-06T03:56:21;99106.06;;;7.73;100.00
23417;BME280;11881;42.432;25.632;2024-03-06T03:58:47;99113.25;;;7.82;100.00
23417;BME280;11881;42.432;25.632;2024-03-06T04:01:13;99117.69;;;7.93;100.00
23417;BME280;11881;42.432;25.632;2024-03-06T04:03:38;99123.44;;;7.66;100.00
23417;BME280;11881;42.432;25.632;2024-03-06T04:06:06;99125.69;;;7.70;100.00
23417;BME280;11881;42.432;25.632;2024-03-06T04:08:32;99127.84;;;7.77;100.00
23417;BME280;11881;42.432;25.632;2024-03-06T04:10:58;99137.63;;;7.76;100.00
23417;BME280;11881;42.432;25.632;2024-03-06T04:13:23;99133.25;;;7.86;100.00
23417;BME280;11881;42.432;25.632;2024-03-06T04:15:49;99139.72;;;7.61;100.00
23417;BME280;11881;42.432;25.632;2024-03-06T04:18:14;99140.19;;;7.66;100.00
23417;BME280;11881;42.432;25.632;2024-03-06T04:20:40;99140.41;;;7.63;100.00
23417;BME280;11881;42.432;25.632;2024-03-06T04:23:05;99136.22;;;7.61;100.00
23417;BME280;11881;42.432;25.632;2024-03-06T04:25:30;99145.00;;;7.61;100.00
23417;BME280;11881;42.432;25.632;2024-03-06T04:27:56;99141.00;;;7.78;100.00
23417;BME280;11881;42.432;25.632;2024-03-06T04:30:21;99144.53;;;7.67;100.00
23417;BME280;11881;42.432;25.632;2024-03-06T04:32:47;99139.84;;;7.60;100.00
23417;BME280;11881;42.432;25.632;2024-03-06T04:35:12;99140.22;;;7.44;100.00
23417;BME280;11881;42.432;25.632;2024-03-06T04:37:38;99142.63;;;7.36;100.00
23417;BME280;11881;42.432;25.632;2024-03-06T04:40:04;99133.47;;;7.51;100.00
23417;BME280;11881;42.432;25.632;2024-03-06T04:42:34;99145.38;;;7.57;100.00
23417;BME280;11881;42.432;25.632;2024-03-06T04:45:19;99145.25;;;7.47;100.00
23417;BME280;11881;42.432;25.632;2024-03-06T04:47:44;99139.72;;;7.50;100.00
23417;BME280;11881;42.432;25.632;2024-03-06T04:50:11;99144.41;;;7.46;100.00
23417;BME280;11881;42.432;25.632;2024-03-06T04:52:40;99150.94;;;7.42;100.00
23417;BME280;11881;42.432;25.632;2024-03-06T04:55:09;99152.63;;;7.43;100.00
23417;BME280;11881;42.432;25.632;2024-03-06T04:57:38;99154.94;;;7.48;100.00
23417;BME280;11881;42.432;25.632;2024-03-06T05:00:06;99142.88;;;7.44;100.00
23417;BME280;11881;42.432;25.632;2024-03-06T05:02:33;99151.06;;;7.30;100.00
23417;BME280;11881;42.432;25.632;2024-03-06T05:05:03;99141.31;;;7.30;100.00
23417;BME280;11881;42.432;25.632;2024-03-06T05:07:29;99141.78;;;7.35;100.00
23417;BME280;11881;42.432;25.632;2024-03-06T05:09:56;99142.25;;;7.40;100.00
23417;BME280;11881;42.432;25.632;2024-03-06T05:12:25;99148.31;;;7.42;100.00
23417;BME280;11881;42.432;25.632;2024-03-06T05:14:51;99153.94;;;7.49;100.00
23417;BME280;11881;42.432;25.632;2024-03-06T05:17:17;99152.22;;;7.59;100.00
23417;BME280;11881;42.432;25.632;2024-03-06T05:19:44;99162.88;;;7.48;100.00
23417;BME280;11881;42.432;25.632;2024-03-06T05:22:10;99156.94;;;7.56;100.00
23417;BME280;11881;42.432;25.632;2024-03-06T05:24:37;99153.69;;;7.63;100.00
23417;BME280;11881;42.432;25.632;2024-03-06T05:27:02;99161.13;;;7.69;100.00
23417;BME280;11881;42.432;25.632;2024-03-06T05:29:28;99166.81;;;7.65;100.00
23417;BME280;11881;42.432;25.632;2024-03-06T05:31:54;99170.91;;;7.58;100.00
23417;BME280;11881;42.432;25.632;2024-03-06T05:34:21;99170.53;;;7.73;100.00
23417;BME280;11881;42.432;25.632;2024-03-06T05:36:47;99170.88;;;7.80;100.00
23417;BME280;11881;42.432;25.632;2024-03-06T05:39:13;99174.72;;;7.87;100.00
23417;BME280;11881;42.432;25.632;2024-03-06T05:41:39;99174.78;;;8.08;100.00
23417;BME280;11881;42.432;25.632;2024-03-06T05:44:06;99169.44;;;8.19;100.00
23417;BME280;11881;42.432;25.632;2024-03-06T05:46:32;99171.47;;;8.27;100.00
23417;BME280;11881;42.432;25.632;2024-03-06T05:48:57;99181.53;;;8.12;100.00
23417;BME280;11881;42.432;25.632;2024-03-06T05:51:23;99183.88;;;8.26;100.00
23417;BME280;11881;42.432;25.632;2024-03-06T05:53:49;99196.81;;;8.20;100.00
23417;BME280;11881;42.432;25.632;2024-03-06T05:56:14;99198.13;;;8.25;100.00
23417;BME280;11881;42.432;25.632;2024-03-06T05:58:40;99199.69;;;8.28;100.00
23417;BME280;11881;42.432;25.632;2024-03-06T06:01:05;99203.16;;;8.28;100.00
23417;BME280;11881;42.432;25.632;2024-03-06T06:03:31;99194.00;;;8.33;100.00
23417;BME280;11881;42.432;25.632;2024-03-06T06:05:56;99199.94;;;8.36;100.00
23417;BME280;11881;42.432;25.632;2024-03-06T06:08:22;99194.13;;;8.42;100.00
23417;BME280;11881;42.432;25.632;2024-03-06T06:10:48;99205.66;;;8.52;100.00
23417;BME280;11881;42.432;25.632;2024-03-06T06:13:13;99198.91;;;8.69;100.00
23417;BME280;11881;42.432;25.632;2024-03-06T06:15:40;99210.00;;;8.74;100.00
23417;BME280;11881;42.432;25.632;2024-03-06T06:18:05;99206.25;;;8.77;100.00
23417;BME280;11881;42.432;25.632;2024-03-06T06:20:31;99213.91;;;8.91;100.00
23417;BME280;11881;42.432;25.632;2024-03-06T06:22:57;99200.81;;;8.99;100.00
23417;BME280;11881;42.432;25.632;2024-03-06T06:25:23;99210.00;;;8.95;100.00
23417;BME280;11881;42.432;25.632;2024-03-06T06:27:48;99206.97;;;9.00;100.00
23417;BME280;11881;42.432;25.632;2024-03-06T06:30:15;99203.25;;;9.12;100.00
23417;BME280;11881;42.432;25.632;2024-03-06T06:32:41;99198.44;;;9.27;100.00
23417;BME280;11881;42.432;25.632;2024-03-06T06:35:08;99204.41;;;9.19;100.00
23417;BME280;11881;42.432;25.632;2024-03-06T06:37:34;99204.69;;;9.16;100.00
23417;BME280;11881;42.432;25.632;2024-03-06T06:40:00;99200.31;;;9.36;100.00
23417;BME280;11881;42.432;25.632;2024-03-06T06:42:28;99192.28;;;9.57;100.00
23417;BME280;11881;42.432;25.632;2024-03-06T06:44:53;99196.22;;;9.63;100.00
23417;BME280;11881;42.432;25.632;2024-03-06T06:47:19;99198.34;;;9.78;100.00
23417;BME280;11881;42.432;25.632;2024-03-06T06:49:44;99195.59;;;9.99;100.00
23417;BME280;11881;42.432;25.632;2024-03-06T06:52:10;99190.34;;;10.28;100.00
23417;BME280;11881;42.432;25.632;2024-03-06T06:54:35;99182.63;;;10.25;100.00
23417;BME280;11881;42.432;25.632;2024-03-06T06:57:01;99185.28;;;10.25;100.00
23417;BME280;11881;42.432;25.632;2024-03-06T06:59:26;99193.84;;;10.58;100.00
23417;BME280;11881;42.432;25.632;2024-03-06T07:01:53;99181.78;;;10.63;100.00
23417;BME280;11881;42.432;25.632;2024-03-06T07:04:19;99193.94;;;10.08;100.00
23417;BME280;11881;42.432;25.632;2024-03-06T07:06:46;99195.19;;;9.94;100.00
23417;BME280;11881;42.432;25.632;2024-03-06T07:09:12;99198.91;;;10.51;100.00
23417;BME280;11881;42.432;25.632;2024-03-06T07:11:37;99201.56;;;10.80;100.00
23417;BME280;11881;42.432;25.632;2024-03-06T07:14:03;99192.50;;;11.20;100.00
23417;BME280;11881;42.432;25.632;2024-03-06T07:16:28;99194.81;;;11.42;100.00
23417;BME280;11881;42.432;25.632;2024-03-06T07:18:54;99203.59;;;11.53;100.00
23417;BME280;11881;42.432;25.632;2024-03-06T07:21:19;99211.84;;;11.22;100.00
23417;BME280;11881;42.432;25.632;2024-03-06T07:23:45;99207.69;;;11.00;100.00
23417;BME280;11881;42.432;25.632;2024-03-06T07:26:10;99220.00;;;10.14;100.00
23417;BME280;11881;42.432;25.632;2024-03-06T07:28:36;99224.59;;;9.93;100.00
23417;BME280;11881;42.432;25.632;2024-03-06T07:31:21;99229.13;;;9.71;100.00
23417;BME280;11881;42.432;25.632;2024-03-06T07:33:46;99228.56;;;9.68;100.00
23417;BME280;11881;42.432;25.632;2024-03-06T07:36:12;99234.28;;;10.13;100.00
23417;BME280;11881;42.432;25.632;2024-03-06T07:38:37;99230.72;;;10.33;100.00
23417;BME280;11881;42.432;25.632;2024-03-06T07:41:03;99229.75;;;10.44;100.00
23417;BME280;11881;42.432;25.632;2024-03-06T07:43:28;99226.50;;;10.60;100.00
23417;BME280;11881;42.432;25.632;2024-03-06T07:45:54;99232.13;;;10.47;100.00
23417;BME280;11881;42.432;25.632;2024-03-06T07:48:19;99227.66;;;10.57;100.00
23417;BME280;11881;42.432;25.632;2024-03-06T07:50:45;99224.41;;;10.83;100.00
23417;BME280;11881;42.432;25.632;2024-03-06T07:53:10;99238.56;;;10.93;100.00
23417;BME280;11881;42.432;25.632;2024-03-06T07:55:36;99234.91;;;11.04;100.00
23417;BME280;11881;42.432;25.632;2024-03-06T07:58:01;99235.63;;;10.86;100.00
23417;BME280;11881;42.432;25.632;2024-03-06T08:00:27;99230.56;;;11.03;100.00
23417;BME280;11881;42.432;25.632;2024-03-06T08:02:52;99229.72;;;10.92;100.00
23417;BME280;11881;42.432;25.632;2024-03-06T08:05:18;99241.38;;;10.91;100.00
23417;BME280;11881;42.432;25.632;2024-03-06T08:07:44;99239.75;;;11.28;100.00
23417;BME280;11881;42.432;25.632;2024-03-06T08:10:11;99231.34;;;11.32;100.00
23417;BME280;11881;42.432;25.632;2024-03-06T08:12:41;99239.09;;;11.06;100.00
23417;BME280;11881;42.432;25.632;2024-03-06T08:15:11;99233.22;;;11.03;100.00
23417;BME280;11881;42.432;25.632;2024-03-06T08:17:42;99238.59;;;11.50;100.00
23417;BME280;11881;42.432;25.632;2024-03-06T08:20:08;99233.94;;;11.52;100.00
23417;BME280;11881;42.432;25.632;2024-03-06T08:22:35;99233.31;;;11.67;100.00
23417;BME280;11881;42.432;25.632;2024-03-06T08:25:07;99227.94;;;11.40;100.00
23417;BME280;11881;42.432;25.632;2024-03-06T08:27:35;99240.19;;;11.33;100.00
23417;BME280;11881;42.432;25.632;2024-03-06T08:30:01;99231.44;;;11.40;100.00
23417;BME280;11881;42.432;25.632;2024-03-06T08:32:30;99224.47;;;11.67;100.00
23417;BME280;11881;42.432;25.632;2024-03-06T08:34:55;99225.34;;;11.58;100.00
23417;BME280;11881;42.432;25.632;2024-03-06T08:37:21;99228.63;;;11.89;100.00
23417;BME280;11881;42.432;25.632;2024-03-06T08:39:46;99235.47;;;12.19;100.00
23417;BME280;11881;42.432;25.632;2024-03-06T08:42:13;99226.03;;;12.42;100.00
23417;BME280;11881;42.432;25.632;2024-03-06T08:44:43;99225.25;;;12.68;100.00
23417;BME280;11881;42.432;25.632;2024-03-06T08:47:09;99228.38;;;12.99;100.00
23417;BME280;11881;42.432;25.632;2024-03-06T08:49:34;99226.91;;;13.04;100.00
23417;BME280;11881;42.432;25.632;2024-03-06T08:52:00;99224.34;;;12.77;100.00
23417;BME280;11881;42.432;25.632;2024-03-06T08:54:25;99217.19;;;13.03;100.00
23417;BME280;11881;42.432;25.632;2024-03-06T08:56:51;99224.41;;;12.67;100.00
23417;BME280;11881;42.432;25.632;2024-03-06T08:59:18;99218.53;;;12.82;100.00
23417;BME280;11881;42.432;25.632;2024-03-06T09:01:44;99215.72;;;13.09;100.00
23417;BME280;11881;42.432;25.632;2024-03-06T09:04:09;99220.31;;;13.17;100.00
23417;BME280;11881;42.432;25.632;2024-03-06T09:06:35;99225.38;;;13.02;100.00
23417;BME280;11881;42.432;25.632;2024-03-06T09:09:01;99225.84;;;12.79;100.00
23417;BME280;11881;42.432;25.632;2024-03-06T09:11:27;99226.97;;;13.13;100.00
23417;BME280;11881;42.432;25.632;2024-03-06T09:13:52;99219.13;;;13.37;100.00
23417;BME280;11881;42.432;25.632;2024-03-06T09:16:18;99217.09;;;13.65;100.00
23417;BME280;11881;42.432;25.632;2024-03-06T09:18:43;99228.56;;;13.83;100.00
23417;BME280;11881;42.432;25.632;2024-03-06T09:21:09;99221.13;;;13.69;100.00
23417;BME280;11881;42.432;25.632;2024-03-06T09:23:34;99218.44;;;13.35;100.00
23417;BME280;11881;42.432;25.632;2024-03-06T09:26:00;99225.56;;;13.52;100.00
23417;BME280;11881;42.432;25.632;2024-03-06T09:28:26;99223.47;;;13.72;100.00
23417;BME280;11881;42.432;25.632;2024-03-06T09:30:51;99220.34;;;13.85;100.00
23417;BME280;11881;42.432;25.632;2024-03-06T09:33:16;99221.63;;;13.65;100.00
23417;BME280;11881;42.432;25.632;2024-03-06T09:35:42;99218.94;;;13.65;100.00
23417;BME280;11881;42.432;25.632;2024-03-06T09:38:11;99220.31;;;13.69;100.00
23417;BME280;11881;42.432;25.632;2024-03-06T09:40:38;99228.91;;;13.54;100.00
23417;BME280;11881;42.432;25.632;2024-03-06T09:43:06;99225.56;;;13.52;100.00
23417;BME280;11881;42.432;25.632;2024-03-06T09:45:32;99224.06;;;13.24;100.00
23417;BME280;11881;42.432;25.632;2024-03-06T09:47:58;99218.38;;;13.53;100.00
23417;BME280;11881;42.432;25.632;2024-03-06T09:50:24;99220.22;;;13.26;100.00
23417;BME280;11881;42.432;25.632;2024-03-06T09:52:52;99215.41;;;13.30;100.00
23417;BME280;11881;42.432;25.632;2024-03-06T09:55:19;99211.94;;;13.38;100.00
23417;BME280;11881;42.432;25.632;2024-03-06T09:57:45;99222.97;;;13.35;100.00
23417;BME280;11881;42.432;25.632;2024-03-06T10:00:11;99216.88;;;13.24;100.00
23417;BME280;11881;42.432;25.632;2024-03-06T10:03:01;99211.19;;;13.27;100.00
23417;BME280;11881;42.432;25.632;2024-03-06T10:05:28;99216.31;;;12.95;100.00
23417;BME280;11881;42.432;25.632;2024-03-06T10:07:55;99210.13;;;13.20;100.00
23417;BME280;11881;42.432;25.632;2024-03-06T10:10:21;99213.19;;;13.51;100.00
23417;BME280;11881;42.432;25.632;2024-03-06T10:12:50;99223.91;;;13.51;100.00
23417;BME280;11881;42.432;25.632;2024-03-06T10:15:16;99216.00;;;13.50;100.00
23417;BME280;11881;42.432;25.632;2024-03-06T10:17:42;99206.38;;;13.57;100.00
23417;BME280;11881;42.432;25.632;2024-03-06T10:20:20;99212.81;;;13.80;100.00
23417;BME280;11881;42.432;25.632;2024-03-06T10:22:50;99206.69;;;13.62;98.76
23417;BME280;11881;42.432;25.632;2024-03-06T10:25:20;99214.91;;;13.61;97.85
23417;BME280;11881;42.432;25.632;2024-03-06T10:30:33;99199.03;;;14.09;99.96
23417;BME280;11881;42.432;25.632;2024-03-06T10:33:03;99197.38;;;14.25;100.00
23417;BME280;11881;42.432;25.632;2024-03-06T10:35:29;99191.97;;;14.08;100.00
23417;BME280;11881;42.432;25.632;2024-03-06T10:37:55;99196.13;;;13.95;100.00
23417;BME280;11881;42.432;25.632;2024-03-06T10:40:22;99196.75;;;13.80;100.00
23417;BME280;11881;42.432;25.632;2024-03-06T10:42:48;99187.56;;;13.83;100.00
23417;BME280;11881;42.432;25.632;2024-03-06T10:45:15;99189.41;;;13.82;100.00
23417;BME280;11881;42.432;25.632;2024-03-06T10:47:45;99196.34;;;13.67;100.00
23417;BME280;11881;42.432;25.632;2024-03-06T10:50:14;99185.28;;;13.62;100.00
23417;BME280;11881;42.432;25.632;2024-03-06T10:52:40;99182.13;;;13.67;100.00
23417;BME280;11881;42.432;25.632;2024-03-06T10:55:08;99178.50;;;13.84;100.00
23417;BME280;11881;42.432;25.632;2024-03-06T10:57:36;99181.13;;;13.68;98.13
23417;BME280;11881;42.432;25.632;2024-03-06T11:00:03;99177.19;;;13.88;98.56
23417;BME280;11881;42.432;25.632;2024-03-06T11:02:29;99170.66;;;13.91;97.24
23417;BME280;11881;42.432;25.632;2024-03-06T11:04:55;99177.13;;;13.72;97.07
23417;BME280;11881;42.432;25.632;2024-03-06T11:07:20;99171.13;;;13.70;97.25
23417;BME280;11881;42.432;25.632;2024-03-06T11:09:46;99170.84;;;13.89;97.21
23417;BME280;11881;42.432;25.632;2024-03-06T11:12:35;99163.69;;;14.06;93.54
23417;BME280;11881;42.432;25.632;2024-03-06T11:15:09;99159.06;;;14.49;94.05
23417;BME280;11881;42.432;25.632;2024-03-06T11:17:34;99155.53;;;14.89;90.98
23417;BME280;11881;42.432;25.632;2024-03-06T11:28:23;99147.78;;;14.13;87.11
23417;BME280;11881;42.432;25.632;2024-03-06T11:30:56;99149.97;;;14.17;86.99
23417;BME280;11881;42.432;25.632;2024-03-06T11:33:23;99149.63;;;14.04;88.08
23417;BME280;11881;42.432;25.632;2024-03-06T11:41:25;99152.84;;;13.65;93.59
23417;BME280;11881;42.432;25.632;2024-03-06T11:43:52;99154.03;;;13.71;92.50
23417;BME280;11881;42.432;25.632;2024-03-06T11:46:50;99154.94;;;13.45;93.04
23417;BME280;11881;42.432;25.632;2024-03-06T11:49:22;99151.97;;;13.56;94.64
23417;BME280;11881;42.432;25.632;2024-03-06T11:51:52;99154.09;;;13.45;96.07
23417;BME280;11881;42.432;25.632;2024-03-06T11:54:18;99154.97;;;13.53;100.00
23417;BME280;11881;42.432;25.632;2024-03-06T11:56:49;99166.13;;;13.41;100.00
23417;BME280;11881;42.432;25.632;2024-03-06T11:59:22;99162.94;;;13.37;100.00
23417;BME280;11881;42.432;25.632;2024-03-06T12:01:50;99156.53;;;13.30;100.00
23417;BME280;11881;42.432;25.632;2024-03-06T12:04:16;99158.38;;;13.29;100.00
23417;BME280;11881;42.432;25.632;2024-03-06T12:06:41;99163.25;;;13.34;100.00
23417;BME280;11881;42.432;25.632;2024-03-06T12:09:07;99163.59;;;13.13;100.00
23417;BME280;11881;42.432;25.632;2024-03-06T12:11:36;99162.53;;;13.24;98.78
23417;BME280;11881;42.432;25.632;2024-03-06T12:14:02;99164.41;;;13.31;95.77
23417;BME280;11881;42.432;25.632;2024-03-06T12:16:28;99165.44;;;13.39;94.08
23417;BME280;11881;42.432;25.632;2024-03-06T12:18:58;99162.91;;;13.29;93.61
23417;BME280;11881;42.432;25.632;2024-03-06T12:21:34;99165.50;;;13.21;91.12
23417;BME280;11881;42.432;25.632;2024-03-06T12:24:07;99159.09;;;13.40;90.49
23417;BME280;11881;42.432;25.632;2024-03-06T12:26:33;99164.66;;;13.46;89.40
23417;BME280;11881;42.432;25.632;2024-03-06T12:29:09;99167.00;;;13.49;83.36
23417;BME280;11881;42.432;25.632;2024-03-06T12:31:37;99160.91;;;13.39;84.81
23417;BME280;11881;42.432;25.632;2024-03-06T12:34:03;99164.59;;;13.38;85.09
23417;BME280;11881;42.432;25.632;2024-03-06T12:36:30;99167.03;;;13.57;83.83
23417;BME280;11881;42.432;25.632;2024-03-06T12:38:59;99162.28;;;13.43;86.04
23417;BME280;11881;42.432;25.632;2024-03-06T12:41:24;99162.06;;;13.71;83.90
23417;BME280;11881;42.432;25.632;2024-03-06T12:43:52;99161.91;;;13.72;81.91
23417;BME280;11881;42.432;25.632;2024-03-06T12:46:18;99163.91;;;13.70;82.69
23417;BME280;11881;42.432;25.632;2024-03-06T12:48:44;99158.75;;;13.85;81.75
23417;BME280;11881;42.432;25.632;2024-03-06T12:51:10;99159.50;;;14.03;81.00
23417;BME280;11881;42.432;25.632;2024-03-06T12:53:35;99148.75;;;13.95;81.15
23417;BME280;11881;42.432;25.632;2024-03-06T12:56:01;99164.53;;;14.06;82.48
23417;BME280;11881;42.432;25.632;2024-03-06T12:58:27;99155.13;;;13.94;84.25
23417;BME280;11881;42.432;25.632;2024-03-06T13:00:52;99166.47;;;13.80;84.30
23417;BME280;11881;42.432;25.632;2024-03-06T13:03:19;99150.66;;;13.61;85.67